sensor_id;sensor_type;location;lat;lon;timestamp;temperature;humidity
29577;DHT22;16509;53.862;10.672;2022-11-15T00:03:51;5.80;99.90
29577;DHT22;16509;53.862;10.672;2022-11-15T00:06:17;5.90;99.90
29577;DHT22;16509;53.862;10.672;2022-11-15T00:08:52;5.80;99.90
29577;DHT22;16509;53.862;10.672;2022-11-15T00:11:21;5.70;99.90
29577;DHT22;16509;53.862;10.672;2022-11-15T00:13:47;5.80;99.90
29577;DHT22;16509;53.862;10.672;2022-11-15T00:16:12;5.70;99.90
29577;DHT22;16509;53.862;10.672;2022-11-15T00:18:38;6.10;99.90
29577;DHT22;16509;53.862;10.672;2022-11-15T00:21:10;6.00;99.90
29577;DHT22;16509;53.862;10.672;2022-11-15T00:23:36;6.00;99.90
29577;DHT22;16509;53.862;10.672;2022-11-15T00:26:02;5.80;99.90
29577;DHT22;16509;53.862;10.672;2022-11-15T00:28:28;6.70;99.90
29577;DHT22;16509;53.862;10.672;2022-11-15T00:30:53;6.50;99.90
29577;DHT22;16509;53.862;10.672;2022-11-15T00:33:19;6.00;99.90
29577;DHT22;16509;53.862;10.672;2022-11-15T00:35:45;5.70;99.90
29577;DHT22;16509;53.862;10.672;2022-11-15T00:38:10;7.00;99.90
29577;DHT22;16509;53.862;10.672;2022-11-15T00:40:36;6.50;99.90
29577;DHT22;16509;53.862;10.672;2022-11-15T00:43:01;5.50;99.90
29577;DHT22;16509;53.862;10.672;2022-11-15T00:45:32;5.70;99.90
29577;DHT22;16509;53.862;10.672;2022-11-15T00:47:58;6.20;99.90
29577;DHT22;16509;53.862;10.672;2022-11-15T00:50:23;5.90;99.90
29577;DHT22;16509;53.862;10.672;2022-11-15T00:52:49;5.70;99.90
29577;DHT22;16509;53.862;10.672;2022-11-15T00:55:16;6.70;99.90
29577;DHT22;16509;53.862;10.672;2022-11-15T00:57:42;6.10;99.90
29577;DHT22;16509;53.862;10.672;2022-11-15T01:00:32;6.60;99.90
29577;DHT22;16509;53.862;10.672;2022-11-15T01:02:59;5.80;99.90
29577;DHT22;16509;53.862;10.672;2022-11-15T01:05:25;6.00;99.90
29577;DHT22;16509;53.862;10.672;2022-11-15T01:07:55;5.80;99.90
29577;DHT22;16509;53.862;10.672;2022-11-15T01:10:22;5.90;99.90
29577;DHT22;16509;53.862;10.672;2022-11-15T01:12:48;6.60;99.90
29577;DHT22;16509;53.862;10.672;2022-11-15T01:15:16;5.90;99.90
29577;DHT22;16509;53.862;10.672;2022-11-15T01:17:42;5.90;99.90
29577;DHT22;16509;53.862;10.672;2022-11-15T01:20:08;6.20;99.90
29577;DHT22;16509;53.862;10.672;2022-11-15T01:22:34;5.80;99.90
29577;DHT22;16509;53.862;10.672;2022-11-15T01:25:00;6.10;99.90
29577;DHT22;16509;53.862;10.672;2022-11-15T01:27:25;6.50;99.90
29577;DHT22;16509;53.862;10.672;2022-11-15T01:29:51;6.40;99.90
29577;DHT22;16509;53.862;10.672;2022-11-15T01:32:16;6.00;99.90
29577;DHT22;16509;53.862;10.672;2022-11-15T01:34:42;6.80;99.90
29577;DHT22;16509;53.862;10.672;2022-11-15T01:37:08;6.00;99.90
29577;DHT22;16509;53.862;10.672;2022-11-15T01:39:36;5.90;99.90
29577;DHT22;16509;53.862;10.672;2022-11-15T01:42:02;6.30;99.90
29577;DHT22;16509;53.862;10.672;2022-11-15T01:47:01;5.90;99.90
29577;DHT22;16509;53.862;10.672;2022-11-15T01:49:30;7.50;99.90
29577;DHT22;16509;53.862;10.672;2022-11-15T01:51:58;6.20;99.90
29577;DHT22;16509;53.862;10.672;2022-11-15T01:54:25;6.60;99.90
29577;DHT22;16509;53.862;10.672;2022-11-15T01:57:07;6.20;99.90
29577;DHT22;16509;53.862;10.672;2022-11-15T01:59:34;6.60;99.90
29577;DHT22;16509;53.862;10.672;2022-11-15T02:02:00;6.00;99.90
29577;DHT22;16509;53.862;10.672;2022-11-15T02:04:32;6.40;99.90
29577;DHT22;16509;53.862;10.672;2022-11-15T02:06:59;5.80;99.90
29577;DHT22;16509;53.862;10.672;2022-11-15T02:09:27;5.90;99.90
29577;DHT22;16509;53.862;10.672;2022-11-15T02:11:54;6.10;99.90
29577;DHT22;16509;53.862;10.672;2022-11-15T02:14:21;6.60;99.90
29577;DHT22;16509;53.862;10.672;2022-11-15T02:22:22;6.30;99.90
29577;DHT22;16509;53.862;10.672;2022-11-15T02:25:32;6.00;99.90
29577;DHT22;16509;53.862;10.672;2022-11-15T02:33:41;5.90;99.90
29577;DHT22;16509;53.862;10.672;2022-11-15T02:36:36;5.90;99.90
29577;DHT22;16509;53.862;10.672;2022-11-15T02:39:14;5.70;99.90
29577;DHT22;16509;53.862;10.672;2022-11-15T02:42:07;5.90;99.90
29577;DHT22;16509;53.862;10.672;2022-11-15T02:44:53;5.70;99.90
29577;DHT22;16509;53.862;10.672;2022-11-15T02:47:22;5.90;99.90
29577;DHT22;16509;53.862;10.672;2022-11-15T02:49:54;5.90;99.90
29577;DHT22;16509;53.862;10.672;2022-11-15T02:52:22;5.80;99.90
29577;DHT22;16509;53.862;10.672;2022-11-15T02:54:58;6.20;99.90
29577;DHT22;16509;53.862;10.672;2022-11-15T02:57:50;6.10;99.90
29577;DHT22;16509;53.862;10.672;2022-11-15T03:00:18;5.50;99.90
29577;DHT22;16509;53.862;10.672;2022-11-15T03:05:53;5.60;99.90
29577;DHT22;16509;53.862;10.672;2022-11-15T03:08:33;5.50;99.90
29577;DHT22;16509;53.862;10.672;2022-11-15T03:11:11;5.40;99.90
29577;DHT22;16509;53.862;10.672;2022-11-15T03:13:49;5.50;99.90
29577;DHT22;16509;53.862;10.672;2022-11-15T03:16:24;5.50;99.90
29577;DHT22;16509;53.862;10.672;2022-11-15T03:18:59;5.50;99.90
29577;DHT22;16509;53.862;10.672;2022-11-15T03:21:28;5.70;99.90
29577;DHT22;16509;53.862;10.672;2022-11-15T03:23:55;6.80;99.90
29577;DHT22;16509;53.862;10.672;2022-11-15T03:26:25;5.60;99.90
29577;DHT22;16509;53.862;10.672;2022-11-15T03:29:04;6.10;99.90
29577;DHT22;16509;53.862;10.672;2022-11-15T03:31:34;5.70;99.90
29577;DHT22;16509;53.862;10.672;2022-11-15T03:34:26;5.50;99.90
29577;DHT22;16509;53.862;10.672;2022-11-15T03:36:55;5.40;99.90
29577;DHT22;16509;53.862;10.672;2022-11-15T03:39:21;5.60;99.90
29577;DHT22;16509;53.862;10.672;2022-11-15T03:42:28;5.80;99.90
29577;DHT22;16509;53.862;10.672;2022-11-15T03:45:15;5.30;99.90
29577;DHT22;16509;53.862;10.672;2022-11-15T03:48:10;5.30;99.90
29577;DHT22;16509;53.862;10.672;2022-11-15T03:50:37;5.20;99.90
29577;DHT22;16509;53.862;10.672;2022-11-15T03:53:03;5.20;99.90
29577;DHT22;16509;53.862;10.672;2022-11-15T03:55:32;6.00;99.90
29577;DHT22;16509;53.862;10.672;2022-11-15T03:57:59;5.10;99.90
29577;DHT22;16509;53.862;10.672;2022-11-15T04:00:41;6.30;99.90
29577;DHT22;16509;53.862;10.672;2022-11-15T04:03:23;5.10;99.90
29577;DHT22;16509;53.862;10.672;2022-11-15T04:05:49;5.20;99.90
29577;DHT22;16509;53.862;10.672;2022-11-15T04:08:15;5.30;99.90
29577;DHT22;16509;53.862;10.672;2022-11-15T04:10:49;5.10;99.90
29577;DHT22;16509;53.862;10.672;2022-11-15T04:13:15;5.60;99.90
29577;DHT22;16509;53.862;10.672;2022-11-15T04:15:47;5.20;99.90
29577;DHT22;16509;53.862;10.672;2022-11-15T04:18:13;5.50;99.90
29577;DHT22;16509;53.862;10.672;2022-11-15T04:20:39;5.00;99.90
29577;DHT22;16509;53.862;10.672;2022-11-15T04:23:23;5.10;99.90
29577;DHT22;16509;53.862;10.672;2022-11-15T04:26:26;5.10;99.90
29577;DHT22;16509;53.862;10.672;2022-11-15T04:28:52;5.00;99.90
29577;DHT22;16509;53.862;10.672;2022-11-15T04:31:53;5.20;99.90
29577;DHT22;16509;53.862;10.672;2022-11-15T04:34:18;5.10;99.90
29577;DHT22;16509;53.862;10.672;2022-11-15T04:36:44;5.20;99.90
29577;DHT22;16509;53.862;10.672;2022-11-15T04:39:35;5.00;99.90
29577;DHT22;16509;53.862;10.672;2022-11-15T04:42:00;5.20;99.90
29577;DHT22;16509;53.862;10.672;2022-11-15T04:44:26;5.30;99.90
29577;DHT22;16509;53.862;10.672;2022-11-15T04:47:21;5.10;99.90
29577;DHT22;16509;53.862;10.672;2022-11-15T04:49:47;5.10;99.90
29577;DHT22;16509;53.862;10.672;2022-11-15T04:55:18;5.00;99.90
29577;DHT22;16509;53.862;10.672;2022-11-15T05:01:10;5.00;99.90
29577;DHT22;16509;53.862;10.672;2022-11-15T05:03:37;5.00;99.90
29577;DHT22;16509;53.862;10.672;2022-11-15T05:06:22;5.20;99.90
29577;DHT22;16509;53.862;10.672;2022-11-15T05:08:47;5.30;99.90
29577;DHT22;16509;53.862;10.672;2022-11-15T05:11:13;5.40;99.90
29577;DHT22;16509;53.862;10.672;2022-11-15T05:13:39;6.10;99.90
29577;DHT22;16509;53.862;10.672;2022-11-15T05:16:10;6.50;99.90
29577;DHT22;16509;53.862;10.672;2022-11-15T05:18:36;6.30;99.90
29577;DHT22;16509;53.862;10.672;2022-11-15T05:21:11;5.60;99.90
29577;DHT22;16509;53.862;10.672;2022-11-15T05:23:37;5.60;99.90
29577;DHT22;16509;53.862;10.672;2022-11-15T05:26:04;5.90;99.90
29577;DHT22;16509;53.862;10.672;2022-11-15T05:28:31;5.60;99.90
29577;DHT22;16509;53.862;10.672;2022-11-15T05:31:10;6.10;99.90
29577;DHT22;16509;53.862;10.672;2022-11-15T05:33:40;5.70;99.90
29577;DHT22;16509;53.862;10.672;2022-11-15T05:38:50;5.90;99.90
29577;DHT22;16509;53.862;10.672;2022-11-15T05:41:25;6.40;99.90
29577;DHT22;16509;53.862;10.672;2022-11-15T05:43:52;6.10;99.90
29577;DHT22;16509;53.862;10.672;2022-11-15T05:46:20;6.30;99.90
29577;DHT22;16509;53.862;10.672;2022-11-15T05:48:48;6.00;99.90
29577;DHT22;16509;53.862;10.672;2022-11-15T05:51:15;6.30;99.90
29577;DHT22;16509;53.862;10.672;2022-11-15T05:53:44;6.10;99.90
29577;DHT22;16509;53.862;10.672;2022-11-15T05:56:10;6.00;99.90
29577;DHT22;16509;53.862;10.672;2022-11-15T05:58:39;7.10;99.90
29577;DHT22;16509;53.862;10.672;2022-11-15T06:01:15;6.10;99.90
29577;DHT22;16509;53.862;10.672;2022-11-15T06:03:40;6.40;99.90
29577;DHT22;16509;53.862;10.672;2022-11-15T06:06:06;6.10;99.90
29577;DHT22;16509;53.862;10.672;2022-11-15T06:08:32;6.20;99.90
29577;DHT22;16509;53.862;10.672;2022-11-15T06:11:03;7.80;99.90
29577;DHT22;16509;53.862;10.672;2022-11-15T06:13:29;7.30;99.90
29577;DHT22;16509;53.862;10.672;2022-11-15T06:15:58;7.10;99.90
29577;DHT22;16509;53.862;10.672;2022-11-15T06:18:23;6.50;99.90
29577;DHT22;16509;53.862;10.672;2022-11-15T06:20:49;7.00;99.90
29577;DHT22;16509;53.862;10.672;2022-11-15T06:23:14;6.10;99.90
29577;DHT22;16509;53.862;10.672;2022-11-15T06:25:42;6.40;99.90
29577;DHT22;16509;53.862;10.672;2022-11-15T06:28:08;6.60;99.90
29577;DHT22;16509;53.862;10.672;2022-11-15T06:30:33;6.40;99.90
29577;DHT22;16509;53.862;10.672;2022-11-15T06:33:04;6.40;99.90
29577;DHT22;16509;53.862;10.672;2022-11-15T06:35:35;6.20;99.90
29577;DHT22;16509;53.862;10.672;2022-11-15T06:38:19;6.20;99.90
29577;DHT22;16509;53.862;10.672;2022-11-15T06:40:44;6.40;99.90
29577;DHT22;16509;53.862;10.672;2022-11-15T06:44:10;6.40;99.90
29577;DHT22;16509;53.862;10.672;2022-11-15T06:46:38;6.50;99.90
29577;DHT22;16509;53.862;10.672;2022-11-15T06:49:04;6.90;99.90
29577;DHT22;16509;53.862;10.672;2022-11-15T06:51:29;6.40;99.90
29577;DHT22;16509;53.862;10.672;2022-11-15T06:53:55;6.20;99.90
29577;DHT22;16509;53.862;10.672;2022-11-15T06:56:20;6.70;99.90
29577;DHT22;16509;53.862;10.672;2022-11-15T06:58:46;6.90;99.90
29577;DHT22;16509;53.862;10.672;2022-11-15T07:01:16;6.40;99.90
29577;DHT22;16509;53.862;10.672;2022-11-15T07:03:44;6.90;99.90
29577;DHT22;16509;53.862;10.672;2022-11-15T07:06:23;7.00;99.90
29577;DHT22;16509;53.862;10.672;2022-11-15T07:08:49;6.80;99.90
29577;DHT22;16509;53.862;10.672;2022-11-15T07:11:14;6.70;99.90
29577;DHT22;16509;53.862;10.672;2022-11-15T07:13:45;6.70;99.90
29577;DHT22;16509;53.862;10.672;2022-11-15T07:16:11;6.60;99.90
29577;DHT22;16509;53.862;10.672;2022-11-15T07:18:40;6.60;99.90
29577;DHT22;16509;53.862;10.672;2022-11-15T07:21:08;7.20;99.90
29577;DHT22;16509;53.862;10.672;2022-11-15T07:23:38;6.70;99.90
29577;DHT22;16509;53.862;10.672;2022-11-15T07:26:04;7.20;99.90
29577;DHT22;16509;53.862;10.672;2022-11-15T07:28:30;6.70;99.90
29577;DHT22;16509;53.862;10.672;2022-11-15T07:30:56;7.10;99.90
29577;DHT22;16509;53.862;10.672;2022-11-15T07:33:21;6.90;99.90
29577;DHT22;16509;53.862;10.672;2022-11-15T07:35:47;7.20;99.90
29577;DHT22;16509;53.862;10.672;2022-11-15T07:38:16;7.10;99.90
29577;DHT22;16509;53.862;10.672;2022-11-15T07:40:46;7.30;99.90
29577;DHT22;16509;53.862;10.672;2022-11-15T07:43:12;7.60;99.90
29577;DHT22;16509;53.862;10.672;2022-11-15T07:45:43;7.40;99.90
29577;DHT22;16509;53.862;10.672;2022-11-15T07:48:08;7.20;99.90
29577;DHT22;16509;53.862;10.672;2022-11-15T07:50:34;7.20;99.90
29577;DHT22;16509;53.862;10.672;2022-11-15T07:53:02;7.50;99.90
29577;DHT22;16509;53.862;10.672;2022-11-15T07:55:29;7.60;99.90
29577;DHT22;16509;53.862;10.672;2022-11-15T07:58:07;7.40;99.90
29577;DHT22;16509;53.862;10.672;2022-11-15T08:00:33;7.30;99.90
29577;DHT22;16509;53.862;10.672;2022-11-15T08:03:08;9.10;99.90
29577;DHT22;16509;53.862;10.672;2022-11-15T08:05:36;7.50;99.90
29577;DHT22;16509;53.862;10.672;2022-11-15T08:08:02;7.70;99.90
29577;DHT22;16509;53.862;10.672;2022-11-15T08:10:28;7.40;99.90
29577;DHT22;16509;53.862;10.672;2022-11-15T08:13:04;8.30;99.90
29577;DHT22;16509;53.862;10.672;2022-11-15T08:15:31;7.50;99.90
29577;DHT22;16509;53.862;10.672;2022-11-15T08:17:59;7.70;99.90
29577;DHT22;16509;53.862;10.672;2022-11-15T08:20:27;7.80;99.90
29577;DHT22;16509;53.862;10.672;2022-11-15T08:22:55;7.90;99.90
29577;DHT22;16509;53.862;10.672;2022-11-15T08:25:21;8.80;99.90
29577;DHT22;16509;53.862;10.672;2022-11-15T08:27:47;8.10;99.90
29577;DHT22;16509;53.862;10.672;2022-11-15T08:30:13;8.20;99.90
29577;DHT22;16509;53.862;10.672;2022-11-15T08:32:41;8.00;99.90
29577;DHT22;16509;53.862;10.672;2022-11-15T08:35:07;8.00;99.90
29577;DHT22;16509;53.862;10.672;2022-11-15T08:37:32;8.00;99.90
29577;DHT22;16509;53.862;10.672;2022-11-15T08:39:58;8.50;99.90
29577;DHT22;16509;53.862;10.672;2022-11-15T08:42:30;8.20;99.90
29577;DHT22;16509;53.862;10.672;2022-11-15T08:44:55;8.10;99.90
29577;DHT22;16509;53.862;10.672;2022-11-15T08:47:21;9.10;99.90
29577;DHT22;16509;53.862;10.672;2022-11-15T08:49:48;9.50;99.90
29577;DHT22;16509;53.862;10.672;2022-11-15T08:52:14;8.50;99.90
29577;DHT22;16509;53.862;10.672;2022-11-15T08:54:40;8.40;99.90
29577;DHT22;16509;53.862;10.672;2022-11-15T08:57:08;8.70;99.90
29577;DHT22;16509;53.862;10.672;2022-11-15T08:59:35;8.40;99.90
29577;DHT22;16509;53.862;10.672;2022-11-15T09:02:03;9.50;99.90
29577;DHT22;16509;53.862;10.672;2022-11-15T09:04:29;8.20;99.90
29577;DHT22;16509;53.862;10.672;2022-11-15T09:06:54;8.20;99.90
29577;DHT22;16509;53.862;10.672;2022-11-15T09:09:20;8.50;99.90
29577;DHT22;16509;53.862;10.672;2022-11-15T09:11:45;8.40;99.90
29577;DHT22;16509;53.862;10.672;2022-11-15T09:14:12;8.50;99.90
29577;DHT22;16509;53.862;10.672;2022-11-15T09:16:38;8.60;99.90
29577;DHT22;16509;53.862;10.672;2022-11-15T09:19:04;9.10;99.90
29577;DHT22;16509;53.862;10.672;2022-11-15T09:21:31;8.60;99.90
29577;DHT22;16509;53.862;10.672;2022-11-15T09:23:57;8.90;99.90
29577;DHT22;16509;53.862;10.672;2022-11-15T09:26:23;9.20;99.90
29577;DHT22;16509;53.862;10.672;2022-11-15T09:28:48;8.90;99.90
29577;DHT22;16509;53.862;10.672;2022-11-15T09:31:14;8.60;99.90
29577;DHT22;16509;53.862;10.672;2022-11-15T09:33:45;9.50;99.90
29577;DHT22;16509;53.862;10.672;2022-11-15T09:36:12;8.60;99.90
29577;DHT22;16509;53.862;10.672;2022-11-15T09:38:38;8.90;99.90
29577;DHT22;16509;53.862;10.672;2022-11-15T09:47:05;9.00;99.90
29577;DHT22;16509;53.862;10.672;2022-11-15T09:49:34;9.00;99.90
29577;DHT22;16509;53.862;10.672;2022-11-15T09:52:00;9.10;99.90
29577;DHT22;16509;53.862;10.672;2022-11-15T09:54:28;9.20;99.90
29577;DHT22;16509;53.862;10.672;2022-11-15T09:57:20;9.10;99.90
29577;DHT22;16509;53.862;10.672;2022-11-15T10:02:51;8.90;99.90
29577;DHT22;16509;53.862;10.672;2022-11-15T10:05:25;9.10;99.90
29577;DHT22;16509;53.862;10.672;2022-11-15T10:10:30;9.10;99.90
29577;DHT22;16509;53.862;10.672;2022-11-15T10:13:03;9.20;99.90
29577;DHT22;16509;53.862;10.672;2022-11-15T10:15:29;9.50;99.90
29577;DHT22;16509;53.862;10.672;2022-11-15T10:23:14;9.20;99.90
29577;DHT22;16509;53.862;10.672;2022-11-15T10:26:00;9.50;99.90
29577;DHT22;16509;53.862;10.672;2022-11-15T10:28:30;9.40;99.90
29577;DHT22;16509;53.862;10.672;2022-11-15T10:30:58;9.50;99.90
29577;DHT22;16509;53.862;10.672;2022-11-15T10:33:32;9.30;99.90
29577;DHT22;16509;53.862;10.672;2022-11-15T10:41:16;9.30;99.90
29577;DHT22;16509;53.862;10.672;2022-11-15T10:43:42;9.30;99.90
29577;DHT22;16509;53.862;10.672;2022-11-15T10:46:22;9.80;99.90
29577;DHT22;16509;53.862;10.672;2022-11-15T10:48:48;9.60;99.90
29577;DHT22;16509;53.862;10.672;2022-11-15T10:51:24;10.50;99.90
29577;DHT22;16509;53.862;10.672;2022-11-15T10:53:55;9.30;99.90
29577;DHT22;16509;53.862;10.672;2022-11-15T10:56:22;9.40;99.90
29577;DHT22;16509;53.862;10.672;2022-11-15T10:58:55;9.70;99.90
29577;DHT22;16509;53.862;10.672;2022-11-15T11:01:26;9.60;99.90
29577;DHT22;16509;53.862;10.672;2022-11-15T11:04:03;9.60;99.90
29577;DHT22;16509;53.862;10.672;2022-11-15T11:09:28;9.70;99.90
29577;DHT22;16509;53.862;10.672;2022-11-15T11:11:55;10.00;99.90
29577;DHT22;16509;53.862;10.672;2022-11-15T11:14:32;9.80;99.90
29577;DHT22;16509;53.862;10.672;2022-11-15T11:17:29;9.70;99.90
29577;DHT22;16509;53.862;10.672;2022-11-15T11:20:26;9.80;99.90
29577;DHT22;16509;53.862;10.672;2022-11-15T11:23:12;9.70;99.90
29577;DHT22;16509;53.862;10.672;2022-11-15T11:31:20;10.10;99.90
29577;DHT22;16509;53.862;10.672;2022-11-15T11:34:12;10.00;99.90
29577;DHT22;16509;53.862;10.672;2022-11-15T11:37:01;10.20;99.90
29577;DHT22;16509;53.862;10.672;2022-11-15T11:45:23;10.60;99.90
29577;DHT22;16509;53.862;10.672;2022-11-15T11:50:44;10.50;99.90
29577;DHT22;16509;53.862;10.672;2022-11-15T11:53:39;10.50;99.90
29577;DHT22;16509;53.862;10.672;2022-11-15T11:56:16;10.50;99.90
29577;DHT22;16509;53.862;10.672;2022-11-15T11:58:45;10.70;99.90
29577;DHT22;16509;53.862;10.672;2022-11-15T12:01:16;10.80;99.90
29577;DHT22;16509;53.862;10.672;2022-11-15T12:03:51;10.50;99.90
29577;DHT22;16509;53.862;10.672;2022-11-15T12:17:29;10.80;99.90
29577;DHT22;16509;53.862;10.672;2022-11-15T12:19:59;11.10;99.90
29577;DHT22;16509;53.862;10.672;2022-11-15T12:22:41;10.90;99.90
29577;DHT22;16509;53.862;10.672;2022-11-15T12:25:17;11.10;99.90
29577;DHT22;16509;53.862;10.672;2022-11-15T12:30:44;11.00;99.90
29577;DHT22;16509;53.862;10.672;2022-11-15T12:36:08;11.00;99.90
29577;DHT22;16509;53.862;10.672;2022-11-15T12:41:20;11.20;99.90
29577;DHT22;16509;53.862;10.672;2022-11-15T12:43:47;11.20;99.90
29577;DHT22;16509;53.862;10.672;2022-11-15T12:46:20;11.10;99.90
29577;DHT22;16509;53.862;10.672;2022-11-15T12:48:51;11.10;99.90
29577;DHT22;16509;53.862;10.672;2022-11-15T12:51:19;11.60;99.90
29577;DHT22;16509;53.862;10.672;2022-11-15T12:53:45;11.70;99.90
29577;DHT22;16509;53.862;10.672;2022-11-15T13:04:22;11.20;99.90
29577;DHT22;16509;53.862;10.672;2022-11-15T13:06:56;11.00;99.90
29577;DHT22;16509;53.862;10.672;2022-11-15T13:14:40;11.40;99.90
29577;DHT22;16509;53.862;10.672;2022-11-15T13:19:46;11.40;99.90
29577;DHT22;16509;53.862;10.672;2022-11-15T13:22:12;11.40;99.90
29577;DHT22;16509;53.862;10.672;2022-11-15T13:24:57;11.50;99.90
29577;DHT22;16509;53.862;10.672;2022-11-15T13:27:24;11.40;99.90
29577;DHT22;16509;53.862;10.672;2022-11-15T13:29:50;11.60;99.90
29577;DHT22;16509;53.862;10.672;2022-11-15T13:32:18;11.40;99.90
29577;DHT22;16509;53.862;10.672;2022-11-15T13:34:45;11.40;99.90
29577;DHT22;16509;53.862;10.672;2022-11-15T13:37:31;11.80;99.90
29577;DHT22;16509;53.862;10.672;2022-11-15T13:40:18;11.40;99.90
29577;DHT22;16509;53.862;10.672;2022-11-15T13:42:45;11.50;99.90
29577;DHT22;16509;53.862;10.672;2022-11-15T13:45:15;11.40;99.90
29577;DHT22;16509;53.862;10.672;2022-11-15T13:47:41;11.50;99.90
29577;DHT22;16509;53.862;10.672;2022-11-15T13:50:11;11.90;99.90
29577;DHT22;16509;53.862;10.672;2022-11-15T13:52:39;11.50;99.90
29577;DHT22;16509;53.862;10.672;2022-11-15T13:55:16;11.50;99.90
29577;DHT22;16509;53.862;10.672;2022-11-15T13:57:46;11.40;99.90
29577;DHT22;16509;53.862;10.672;2022-11-15T14:03:22;11.40;99.90
29577;DHT22;16509;53.862;10.672;2022-11-15T14:06:12;11.50;99.90
29577;DHT22;16509;53.862;10.672;2022-11-15T14:08:57;11.40;99.90
29577;DHT22;16509;53.862;10.672;2022-11-15T14:11:23;11.40;99.90
29577;DHT22;16509;53.862;10.672;2022-11-15T14:16:40;11.40;99.90
29577;DHT22;16509;53.862;10.672;2022-11-15T14:19:33;11.30;99.90
29577;DHT22;16509;53.862;10.672;2022-11-15T14:22:34;11.40;99.90
29577;DHT22;16509;53.862;10.672;2022-11-15T14:25:22;11.20;99.90
29577;DHT22;16509;53.862;10.672;2022-11-15T14:28:49;11.30;99.90
29577;DHT22;16509;53.862;10.672;2022-11-15T14:30:58;11.20;99.90
29577;DHT22;16509;53.862;10.672;2022-11-15T14:33:37;11.10;99.90
29577;DHT22;16509;53.862;10.672;2022-11-15T14:38:40;11.20;99.90
29577;DHT22;16509;53.862;10.672;2022-11-15T14:41:22;11.00;99.90
29577;DHT22;16509;53.862;10.672;2022-11-15T14:43:48;11.00;99.90
29577;DHT22;16509;53.862;10.672;2022-11-15T14:46:14;11.00;99.90
29577;DHT22;16509;53.862;10.672;2022-11-15T14:48:40;11.70;99.90
29577;DHT22;16509;53.862;10.672;2022-11-15T14:51:18;10.90;99.90
29577;DHT22;16509;53.862;10.672;2022-11-15T14:53:47;11.00;99.90
29577;DHT22;16509;53.862;10.672;2022-11-15T14:56:15;11.10;99.90
29577;DHT22;16509;53.862;10.672;2022-11-15T14:58:41;10.70;99.90
29577;DHT22;16509;53.862;10.672;2022-11-15T15:01:19;10.80;99.90
29577;DHT22;16509;53.862;10.672;2022-11-15T15:03:45;10.70;99.90
29577;DHT22;16509;53.862;10.672;2022-11-15T15:06:11;11.20;99.90
29577;DHT22;16509;53.862;10.672;2022-11-15T15:08:38;10.60;99.90
29577;DHT22;16509;53.862;10.672;2022-11-15T15:11:10;10.70;99.90
29577;DHT22;16509;53.862;10.672;2022-11-15T15:13:39;10.60;99.90
29577;DHT22;16509;53.862;10.672;2022-11-15T15:16:05;10.70;99.90
29577;DHT22;16509;53.862;10.672;2022-11-15T15:18:32;10.60;99.90
29577;DHT22;16509;53.862;10.672;2022-11-15T15:20:59;11.00;99.90
29577;DHT22;16509;53.862;10.672;2022-11-15T15:23:27;11.20;99.90
29577;DHT22;16509;53.862;10.672;2022-11-15T15:25:56;10.50;99.90
29577;DHT22;16509;53.862;10.672;2022-11-15T15:28:22;10.60;99.90
29577;DHT22;16509;53.862;10.672;2022-11-15T15:30:47;10.40;99.90
29577;DHT22;16509;53.862;10.672;2022-11-15T15:33:17;10.30;99.90
29577;DHT22;16509;53.862;10.672;2022-11-15T15:35:43;10.30;99.90
29577;DHT22;16509;53.862;10.672;2022-11-15T15:38:11;10.30;99.90
29577;DHT22;16509;53.862;10.672;2022-11-15T15:40:37;10.20;99.90
29577;DHT22;16509;53.862;10.672;2022-11-15T15:43:03;10.50;99.90
29577;DHT22;16509;53.862;10.672;2022-11-15T15:45:29;10.30;99.90
29577;DHT22;16509;53.862;10.672;2022-11-15T15:47:55;10.30;99.90
29577;DHT22;16509;53.862;10.672;2022-11-15T15:50:26;10.40;99.90
29577;DHT22;16509;53.862;10.672;2022-11-15T15:52:53;10.10;99.90
29577;DHT22;16509;53.862;10.672;2022-11-15T15:55:19;10.40;99.90
29577;DHT22;16509;53.862;10.672;2022-11-15T15:57:44;10.20;99.90
29577;DHT22;16509;53.862;10.672;2022-11-15T16:00:11;10.10;99.90
29577;DHT22;16509;53.862;10.672;2022-11-15T16:02:37;10.10;99.90
29577;DHT22;16509;53.862;10.672;2022-11-15T16:05:03;10.80;99.90
29577;DHT22;16509;53.862;10.672;2022-11-15T16:07:29;10.00;99.90
29577;DHT22;16509;53.862;10.672;2022-11-15T16:09:55;10.40;99.90
29577;DHT22;16509;53.862;10.672;2022-11-15T16:12:34;10.10;99.90
29577;DHT22;16509;53.862;10.672;2022-11-15T16:15:01;10.20;99.90
29577;DHT22;16509;53.862;10.672;2022-11-15T16:17:31;9.90;99.90
29577;DHT22;16509;53.862;10.672;2022-11-15T16:19:57;10.00;99.90
29577;DHT22;16509;53.862;10.672;2022-11-15T16:22:22;10.20;99.90
29577;DHT22;16509;53.862;10.672;2022-11-15T16:24:48;10.00;99.90
29577;DHT22;16509;53.862;10.672;2022-11-15T16:27:15;10.00;99.90
29577;DHT22;16509;53.862;10.672;2022-11-15T16:29:42;9.90;99.90
29577;DHT22;16509;53.862;10.672;2022-11-15T16:32:07;10.00;99.90
29577;DHT22;16509;53.862;10.672;2022-11-15T16:34:33;10.20;99.90
29577;DHT22;16509;53.862;10.672;2022-11-15T16:36:59;10.00;99.90
29577;DHT22;16509;53.862;10.672;2022-11-15T16:39:24;10.60;99.90
29577;DHT22;16509;53.862;10.672;2022-11-15T16:41:50;10.70;99.90
29577;DHT22;16509;53.862;10.672;2022-11-15T16:44:16;10.10;99.90
29577;DHT22;16509;53.862;10.672;2022-11-15T16:46:42;10.50;99.90
29577;DHT22;16509;53.862;10.672;2022-11-15T16:49:14;10.20;99.90
29577;DHT22;16509;53.862;10.672;2022-11-15T16:51:45;10.20;99.90
29577;DHT22;16509;53.862;10.672;2022-11-15T16:54:11;10.40;99.90
29577;DHT22;16509;53.862;10.672;2022-11-15T16:56:37;10.20;99.90
29577;DHT22;16509;53.862;10.672;2022-11-15T16:59:04;10.10;99.90
29577;DHT22;16509;53.862;10.672;2022-11-15T17:01:33;10.10;99.90
29577;DHT22;16509;53.862;10.672;2022-11-15T17:04:00;10.20;99.90
29577;DHT22;16509;53.862;10.672;2022-11-15T17:06:37;10.50;99.90
29577;DHT22;16509;53.862;10.672;2022-11-15T17:09:03;10.30;99.90
29577;DHT22;16509;53.862;10.672;2022-11-15T17:11:28;10.60;99.90
29577;DHT22;16509;53.862;10.672;2022-11-15T17:13:57;10.20;99.90
29577;DHT22;16509;53.862;10.672;2022-11-15T17:16:23;10.60;99.90
29577;DHT22;16509;53.862;10.672;2022-11-15T17:18:52;10.80;99.90
29577;DHT22;16509;53.862;10.672;2022-11-15T17:21:20;10.50;99.90
29577;DHT22;16509;53.862;10.672;2022-11-15T17:23:47;10.50;99.90
29577;DHT22;16509;53.862;10.672;2022-11-15T17:26:14;10.60;99.90
29577;DHT22;16509;53.862;10.672;2022-11-15T17:28:40;10.20;99.90
29577;DHT22;16509;53.862;10.672;2022-11-15T17:31:08;10.60;99.90
29577;DHT22;16509;53.862;10.672;2022-11-15T17:33:34;10.20;99.90
29577;DHT22;16509;53.862;10.672;2022-11-15T17:36:04;10.20;99.90
29577;DHT22;16509;53.862;10.672;2022-11-15T17:38:30;10.20;99.90